Freshwater, United Kingdom
Current Conditions -  °F | °C
As of 9:20 PM on Thursday 18 Dec 2014 (Local Time) from EGHI Reporting Station
Drizzle Drizzle  
Wind Chill: 52°   Ceiling: 1100
Heat Index: 52°   Visibility: 5mi
Dew Point: 50°   Wind: 18mph
Humidity: 94%   Direction: 240°WSW
Pressure: 29.91"   Gusts: NA
Location:  50.69°N, 1.51°W
Report Text: EGHI 182120Z 24016KT 210V270 8000 DZ BKN011 11/10 Q1013
Loading
Personal Weather Stations






























Interactive Weather Map New forecast layout! Learn more

10-Day Weather Forecast

Advertisements
Track Severe Weather on mobile